<?xml version="1.0" encoding="UTF-8" standalone="no" ?>
<gpx xmlns="http://www.topografix.com/GPX/1/1" xmlns:xsi="http://www.w3.org/2001/XMLSchema-instance" xsi:schemaLocation="http://www.topografix.com/GPX/1/1 http://www.topografix.com/GPX/1/1/gpx.xsd" version="1.1" creator="VisuGPX - https://www.visugpx.com">
  <metadata>
    <name>Etape 2 Férel - Les Moûtiers</name>
    <desc><![CDATA[Randonnée vélo Rennes - Hendaye, empruntant la Vélodyssée à partir de Saint-Brevin-Les-Pins. ]]></desc>
  </metadata>
  <trk>
    <name><![CDATA[Sequence 15]]></name>
    <trkseg>
      <trkpt lat="47.27154" lon="-2.20477">
        <ele>6</ele>
        <time>2016-07-22T06:54:28Z</time>
      </trkpt>
      <trkpt lat="47.27152" lon="-2.20474">
        <ele>7</ele>
        <time>2016-07-22T06:54:32Z</time>
      </trkpt>
      <trkpt lat="47.27149" lon="-2.20465">
        <ele>8</ele>
        <time>2016-07-22T06:54:36Z</time>
      </trkpt>
      <trkpt lat="47.27143" lon="-2.20442">
        <ele>9</ele>
        <time>2016-07-22T06:54:41Z</time>
      </trkpt>
      <trkpt lat="47.27136" lon="-2.20416">
        <ele>11</ele>
        <time>2016-07-22T06:54:46Z</time>
      </trkpt>
      <trkpt lat="47.27131" lon="-2.2039">
        <ele>8</ele>
        <time>2016-07-22T06:54:51Z</time>
      </trkpt>
      <trkpt lat="47.27124" lon="-2.20361">
        <ele>16</ele>
        <time>2016-07-22T06:54:57Z</time>
      </trkpt>
      <trkpt lat="47.27118" lon="-2.20328">
        <ele>17</ele>
        <time>2016-07-22T06:55:03Z</time>
      </trkpt>
      <trkpt lat="47.27116" lon="-2.20313">
        <ele>15</ele>
        <time>2016-07-22T06:55:06Z</time>
      </trkpt>
      <trkpt lat="47.2711" lon="-2.20285">
        <ele>13</ele>
        <time>2016-07-22T06:55:11Z</time>
      </trkpt>
      <trkpt lat="47.27114" lon="-2.20267">
        <ele>11</ele>
        <time>2016-07-22T06:55:16Z</time>
      </trkpt>
      <trkpt lat="47.27125" lon="-2.20265">
        <ele>14</ele>
        <time>2016-07-22T06:55:22Z</time>
      </trkpt>
      <trkpt lat="47.27141" lon="-2.20262">
        <ele>14</ele>
        <time>2016-07-22T06:55:26Z</time>
      </trkpt>
      <trkpt lat="47.27179" lon="-2.20246">
        <ele>19</ele>
        <time>2016-07-22T06:55:35Z</time>
      </trkpt>
      <trkpt lat="47.27191" lon="-2.20244">
        <ele>23</ele>
        <time>2016-07-22T06:55:38Z</time>
      </trkpt>
      <trkpt lat="47.27208" lon="-2.20239">
        <ele>21</ele>
        <time>2016-07-22T06:55:42Z</time>
      </trkpt>
      <trkpt lat="47.27217" lon="-2.20234">
        <ele>25</ele>
        <time>2016-07-22T06:55:46Z</time>
      </trkpt>
      <trkpt lat="47.27229" lon="-2.20223">
        <ele>29</ele>
        <time>2016-07-22T06:55:51Z</time>
      </trkpt>
      <trkpt lat="47.27262" lon="-2.20232">
        <ele>20</ele>
        <time>2016-07-22T06:56:00Z</time>
      </trkpt>
      <trkpt lat="47.27264" lon="-2.20233">
        <ele>17</ele>
        <time>2016-07-22T06:56:03Z</time>
      </trkpt>
      <trkpt lat="47.27264" lon="-2.20232">
        <ele>16</ele>
        <time>2016-07-22T06:56:08Z</time>
      </trkpt>
      <trkpt lat="47.27265" lon="-2.20236">
        <ele>13</ele>
        <time>2016-07-22T06:56:11Z</time>
      </trkpt>
      <trkpt lat="47.27265" lon="-2.20237">
        <ele>13</ele>
        <time>2016-07-22T06:56:16Z</time>
      </trkpt>
      <trkpt lat="47.27266" lon="-2.20236">
        <ele>14</ele>
        <time>2016-07-22T06:56:21Z</time>
      </trkpt>
      <trkpt lat="47.27268" lon="-2.20218">
        <ele>14</ele>
        <time>2016-07-22T06:56:28Z</time>
      </trkpt>
      <trkpt lat="47.27266" lon="-2.20195">
        <ele>15</ele>
        <time>2016-07-22T06:56:35Z</time>
      </trkpt>
      <trkpt lat="47.27264" lon="-2.20187">
        <ele>15</ele>
        <time>2016-07-22T06:56:38Z</time>
      </trkpt>
      <trkpt lat="47.27263" lon="-2.20178">
        <ele>17</ele>
        <time>2016-07-22T06:56:41Z</time>
      </trkpt>
      <trkpt lat="47.27268" lon="-2.20145">
        <ele>15</ele>
        <time>2016-07-22T06:56:49Z</time>
      </trkpt>
      <trkpt lat="47.27276" lon="-2.2013">
        <ele>13</ele>
        <time>2016-07-22T06:56:54Z</time>
      </trkpt>
      <trkpt lat="47.27277" lon="-2.20125">
        <ele>12</ele>
        <time>2016-07-22T06:56:58Z</time>
      </trkpt>
      <trkpt lat="47.27277" lon="-2.20117">
        <ele>14</ele>
        <time>2016-07-22T06:57:02Z</time>
      </trkpt>
      <trkpt lat="47.27276" lon="-2.20102">
        <ele>15</ele>
        <time>2016-07-22T06:57:06Z</time>
      </trkpt>
      <trkpt lat="47.27268" lon="-2.20066">
        <ele>14</ele>
        <time>2016-07-22T06:57:14Z</time>
      </trkpt>
      <trkpt lat="47.27267" lon="-2.20059">
        <ele>14</ele>
        <time>2016-07-22T06:57:16Z</time>
      </trkpt>
      <trkpt lat="47.2726" lon="-2.20045">
        <ele>14</ele>
        <time>2016-07-22T06:57:21Z</time>
      </trkpt>
      <trkpt lat="47.27258" lon="-2.20039">
        <ele>16</ele>
        <time>2016-07-22T06:57:26Z</time>
      </trkpt>
      <trkpt lat="47.27259" lon="-2.20039">
        <ele>18</ele>
        <time>2016-07-22T06:57:31Z</time>
      </trkpt>
      <trkpt lat="47.2725" lon="-2.20013">
        <ele>17</ele>
        <time>2016-07-22T06:57:39Z</time>
      </trkpt>
      <trkpt lat="47.27248" lon="-2.20004">
        <ele>18</ele>
        <time>2016-07-22T06:57:41Z</time>
      </trkpt>
      <trkpt lat="47.27243" lon="-2.19966">
        <ele>14</ele>
        <time>2016-07-22T06:57:48Z</time>
      </trkpt>
      <trkpt lat="47.27239" lon="-2.19951">
        <ele>13</ele>
        <time>2016-07-22T06:57:51Z</time>
      </trkpt>
      <trkpt lat="47.27236" lon="-2.19916">
        <ele>12</ele>
        <time>2016-07-22T06:57:57Z</time>
      </trkpt>
      <trkpt lat="47.27241" lon="-2.1988">
        <ele>11</ele>
        <time>2016-07-22T06:58:03Z</time>
      </trkpt>
      <trkpt lat="47.27253" lon="-2.19862">
        <ele>11</ele>
        <time>2016-07-22T06:58:08Z</time>
      </trkpt>
      <trkpt lat="47.2726" lon="-2.19857">
        <ele>10</ele>
        <time>2016-07-22T06:58:11Z</time>
      </trkpt>
      <trkpt lat="47.27274" lon="-2.19855">
        <ele>9</ele>
        <time>2016-07-22T06:58:16Z</time>
      </trkpt>
      <trkpt lat="47.27288" lon="-2.19844">
        <ele>9</ele>
        <time>2016-07-22T06:58:24Z</time>
      </trkpt>
      <trkpt lat="47.27289" lon="-2.19836">
        <ele>8</ele>
        <time>2016-07-22T06:58:27Z</time>
      </trkpt>
      <trkpt lat="47.27288" lon="-2.19823">
        <ele>7</ele>
        <time>2016-07-22T06:58:31Z</time>
      </trkpt>
      <trkpt lat="47.27283" lon="-2.19812">
        <ele>3</ele>
        <time>2016-07-22T06:58:36Z</time>
      </trkpt>
      <trkpt lat="47.27266" lon="-2.19802">
        <ele>6</ele>
        <time>2016-07-22T06:58:45Z</time>
      </trkpt>
      <trkpt lat="47.27264" lon="-2.198">
        <ele>3</ele>
        <time>2016-07-22T06:58:47Z</time>
      </trkpt>
      <trkpt lat="47.27265" lon="-2.198">
        <ele>4</ele>
        <time>2016-07-22T06:58:52Z</time>
      </trkpt>
    </trkseg>
  </trk>
</gpx>